sensor_id;sensor_type;location;lat;lon;timestamp;P1;durP1;ratioP1;P2;durP2;ratioP2
1276;SDS011;631;51.024;13.826;2022-09-06T00:00:09;20.33;;;18.53;;
1276;SDS011;631;51.024;13.826;2022-09-06T00:02:37;21.13;;;19.03;;
1276;SDS011;631;51.024;13.826;2022-09-06T00:05:03;21.00;;;18.93;;
1276;SDS011;631;51.024;13.826;2022-09-06T00:07:29;20.37;;;18.47;;
1276;SDS011;631;51.024;13.826;2022-09-06T00:09:55;20.60;;;18.80;;
1276;SDS011;631;51.024;13.826;2022-09-06T00:12:21;20.30;;;18.20;;
1276;SDS011;631;51.024;13.826;2022-09-06T00:14:47;20.47;;;18.67;;
1276;SDS011;631;51.024;13.826;2022-09-06T00:17:12;19.70;;;17.80;;
1276;SDS011;631;51.024;13.826;2022-09-06T00:19:38;19.70;;;18.00;;
1276;SDS011;631;51.024;13.826;2022-09-06T00:22:03;20.30;;;18.40;;
1276;SDS011;631;51.024;13.826;2022-09-06T00:24:29;20.10;;;18.10;;
1276;SDS011;631;51.024;13.826;2022-09-06T00:26:54;19.63;;;17.83;;
1276;SDS011;631;51.024;13.826;2022-09-06T00:29:20;20.80;;;18.90;;
1276;SDS011;631;51.024;13.826;2022-09-06T00:31:45;20.60;;;18.80;;
1276;SDS011;631;51.024;13.826;2022-09-06T00:34:11;20.27;;;18.47;;
1276;SDS011;631;51.024;13.826;2022-09-06T00:36:36;19.80;;;18.00;;
1276;SDS011;631;51.024;13.826;2022-09-06T00:39:02;19.93;;;18.13;;
1276;SDS011;631;51.024;13.826;2022-09-06T00:41:28;20.43;;;18.53;;
1276;SDS011;631;51.024;13.826;2022-09-06T00:43:53;19.23;;;17.43;;
1276;SDS011;631;51.024;13.826;2022-09-06T00:46:22;19.50;;;17.80;;
1276;SDS011;631;51.024;13.826;2022-09-06T00:48:51;19.43;;;17.57;;
1276;SDS011;631;51.024;13.826;2022-09-06T00:51:20;19.00;;;17.30;;
1276;SDS011;631;51.024;13.826;2022-09-06T00:53:48;19.17;;;17.47;;
1276;SDS011;631;51.024;13.826;2022-09-06T00:56:14;19.00;;;17.40;;
1276;SDS011;631;51.024;13.826;2022-09-06T00:58:40;19.17;;;17.47;;
1276;SDS011;631;51.024;13.826;2022-09-06T01:01:06;19.00;;;17.10;;
1276;SDS011;631;51.024;13.826;2022-09-06T01:03:32;19.73;;;17.93;;
1276;SDS011;631;51.024;13.826;2022-09-06T01:08:52;18.33;;;16.83;;
1276;SDS011;631;51.024;13.826;2022-09-06T01:17:10;18.73;;;16.93;;
1276;SDS011;631;51.024;13.826;2022-09-06T01:28:32;18.20;;;16.60;;
1276;SDS011;631;51.024;13.826;2022-09-06T01:36:14;17.07;;;15.57;;
1276;SDS011;631;51.024;13.826;2022-09-06T01:38:43;17.80;;;16.10;;
1276;SDS011;631;51.024;13.826;2022-09-06T01:41:09;17.67;;;16.17;;
1276;SDS011;631;51.024;13.826;2022-09-06T01:43:35;17.13;;;15.53;;
1276;SDS011;631;51.024;13.826;2022-09-06T01:56:39;17.27;;;15.83;;
1276;SDS011;631;51.024;13.826;2022-09-06T02:04:17;18.20;;;16.30;;
1276;SDS011;631;51.024;13.826;2022-09-06T02:06:51;16.83;;;15.43;;
1276;SDS011;631;51.024;13.826;2022-09-06T02:09:22;17.63;;;16.03;;
1276;SDS011;631;51.024;13.826;2022-09-06T02:11:52;17.73;;;16.20;;
1276;SDS011;631;51.024;13.826;2022-09-06T02:14:23;17.53;;;15.93;;
1276;SDS011;631;51.024;13.826;2022-09-06T02:16:55;17.83;;;16.33;;
1276;SDS011;631;51.024;13.826;2022-09-06T02:19:36;16.60;;;15.10;;
1276;SDS011;631;51.024;13.826;2022-09-06T02:22:08;20.67;;;15.90;;
1276;SDS011;631;51.024;13.826;2022-09-06T02:24:35;17.40;;;15.83;;
1276;SDS011;631;51.024;13.826;2022-09-06T02:27:03;17.33;;;15.53;;
1276;SDS011;631;51.024;13.826;2022-09-06T02:29:29;15.43;;;14.13;;
1276;SDS011;631;51.024;13.826;2022-09-06T02:31:56;16.67;;;15.20;;
1276;SDS011;631;51.024;13.826;2022-09-06T02:34:27;17.00;;;15.50;;
1276;SDS011;631;51.024;13.826;2022-09-06T02:36:54;17.50;;;15.80;;
1276;SDS011;631;51.024;13.826;2022-09-06T02:39:19;16.87;;;15.17;;
1276;SDS011;631;51.024;13.826;2022-09-06T02:41:45;17.07;;;15.67;;
1276;SDS011;631;51.024;13.826;2022-09-06T02:44:12;16.80;;;15.30;;
1276;SDS011;631;51.024;13.826;2022-09-06T02:46:38;15.97;;;14.53;;
1276;SDS011;631;51.024;13.826;2022-09-06T02:49:04;16.47;;;15.07;;
1276;SDS011;631;51.024;13.826;2022-09-06T02:51:30;16.23;;;14.83;;
1276;SDS011;631;51.024;13.826;2022-09-06T02:54:03;17.27;;;15.67;;
1276;SDS011;631;51.024;13.826;2022-09-06T02:56:30;16.53;;;15.17;;
1276;SDS011;631;51.024;13.826;2022-09-06T02:58:57;17.07;;;15.60;;
1276;SDS011;631;51.024;13.826;2022-09-06T03:01:23;16.20;;;14.80;;
1276;SDS011;631;51.024;13.826;2022-09-06T03:03:49;15.93;;;14.63;;
1276;SDS011;631;51.024;13.826;2022-09-06T03:06:15;17.30;;;15.60;;
1276;SDS011;631;51.024;13.826;2022-09-06T03:08:40;17.20;;;15.70;;
1276;SDS011;631;51.024;13.826;2022-09-06T03:11:06;15.80;;;14.40;;
1276;SDS011;631;51.024;13.826;2022-09-06T03:13:31;15.37;;;13.97;;
1276;SDS011;631;51.024;13.826;2022-09-06T03:15:57;16.63;;;15.20;;
1276;SDS011;631;51.024;13.826;2022-09-06T03:18:24;16.80;;;15.33;;
1276;SDS011;631;51.024;13.826;2022-09-06T03:20:51;16.10;;;14.70;;
1276;SDS011;631;51.024;13.826;2022-09-06T03:23:19;16.53;;;15.13;;
1276;SDS011;631;51.024;13.826;2022-09-06T03:25:45;16.43;;;14.93;;
1276;SDS011;631;51.024;13.826;2022-09-06T03:28:11;16.73;;;15.27;;
1276;SDS011;631;51.024;13.826;2022-09-06T03:30:38;17.40;;;15.80;;
1276;SDS011;631;51.024;13.826;2022-09-06T03:33:04;16.73;;;15.07;;
1276;SDS011;631;51.024;13.826;2022-09-06T03:35:30;16.73;;;15.30;;
1276;SDS011;631;51.024;13.826;2022-09-06T03:37:55;17.27;;;15.77;;
1276;SDS011;631;51.024;13.826;2022-09-06T03:40:21;17.87;;;16.30;;
1276;SDS011;631;51.024;13.826;2022-09-06T03:42:47;17.03;;;15.53;;
1276;SDS011;631;51.024;13.826;2022-09-06T03:45:12;17.77;;;16.10;;
1276;SDS011;631;51.024;13.826;2022-09-06T03:47:38;16.57;;;15.17;;
1276;SDS011;631;51.024;13.826;2022-09-06T03:50:04;17.43;;;15.87;;
1276;SDS011;631;51.024;13.826;2022-09-06T03:52:30;17.67;;;16.00;;
1276;SDS011;631;51.024;13.826;2022-09-06T03:54:56;17.40;;;15.90;;
1276;SDS011;631;51.024;13.826;2022-09-06T03:57:21;17.73;;;16.10;;
1276;SDS011;631;51.024;13.826;2022-09-06T03:59:47;19.60;;;17.80;;
1276;SDS011;631;51.024;13.826;2022-09-06T04:02:13;19.37;;;17.57;;
1276;SDS011;631;51.024;13.826;2022-09-06T04:04:38;19.03;;;17.20;;
1276;SDS011;631;51.024;13.826;2022-09-06T04:07:04;18.57;;;16.80;;
1276;SDS011;631;51.024;13.826;2022-09-06T04:09:29;19.70;;;17.80;;
1276;SDS011;631;51.024;13.826;2022-09-06T04:11:55;21.73;;;19.70;;
1276;SDS011;631;51.024;13.826;2022-09-06T04:14:21;20.60;;;18.67;;
1276;SDS011;631;51.024;13.826;2022-09-06T04:16:46;21.00;;;19.10;;
1276;SDS011;631;51.024;13.826;2022-09-06T04:19:13;22.30;;;20.10;;
1276;SDS011;631;51.024;13.826;2022-09-06T04:21:38;22.73;;;19.60;;
1276;SDS011;631;51.024;13.826;2022-09-06T04:24:04;21.97;;;19.87;;
1276;SDS011;631;51.024;13.826;2022-09-06T04:26:29;21.60;;;19.57;;
1276;SDS011;631;51.024;13.826;2022-09-06T04:28:55;22.37;;;20.07;;
1276;SDS011;631;51.024;13.826;2022-09-06T04:31:20;24.00;;;21.60;;
1276;SDS011;631;51.024;13.826;2022-09-06T04:33:46;21.77;;;19.77;;
1276;SDS011;631;51.024;13.826;2022-09-06T04:36:12;23.10;;;20.03;;
1276;SDS011;631;51.024;13.826;2022-09-06T04:38:41;51.23;;;23.57;;
1276;SDS011;631;51.024;13.826;2022-09-06T04:41:08;22.00;;;19.90;;
1276;SDS011;631;51.024;13.826;2022-09-06T04:43:35;24.87;;;22.20;;
1276;SDS011;631;51.024;13.826;2022-09-06T04:48:30;23.13;;;20.80;;
1276;SDS011;631;51.024;13.826;2022-09-06T04:50:56;23.63;;;19.87;;
1276;SDS011;631;51.024;13.826;2022-09-06T04:53:21;22.10;;;19.90;;
1276;SDS011;631;51.024;13.826;2022-09-06T04:55:47;23.50;;;21.20;;
1276;SDS011;631;51.024;13.826;2022-09-06T04:58:13;22.93;;;20.50;;
1276;SDS011;631;51.024;13.826;2022-09-06T05:00:38;22.77;;;20.57;;
1276;SDS011;631;51.024;13.826;2022-09-06T05:03:06;21.77;;;19.67;;
1276;SDS011;631;51.024;13.826;2022-09-06T05:05:31;20.80;;;18.90;;
1276;SDS011;631;51.024;13.826;2022-09-06T05:07:57;23.63;;;21.40;;
1276;SDS011;631;51.024;13.826;2022-09-06T05:10:23;22.33;;;20.30;;
1276;SDS011;631;51.024;13.826;2022-09-06T05:12:50;23.10;;;20.90;;
1276;SDS011;631;51.024;13.826;2022-09-06T05:15:16;22.87;;;20.67;;
1276;SDS011;631;51.024;13.826;2022-09-06T05:17:42;21.13;;;19.30;;
1276;SDS011;631;51.024;13.826;2022-09-06T05:20:08;23.33;;;21.20;;
1276;SDS011;631;51.024;13.826;2022-09-06T05:22:35;20.77;;;18.87;;
1276;SDS011;631;51.024;13.826;2022-09-06T05:25:01;21.80;;;19.73;;
1276;SDS011;631;51.024;13.826;2022-09-06T05:27:26;19.67;;;17.93;;
1276;SDS011;631;51.024;13.826;2022-09-06T05:29:52;20.03;;;18.13;;
1276;SDS011;631;51.024;13.826;2022-09-06T05:32:17;21.00;;;18.87;;
1276;SDS011;631;51.024;13.826;2022-09-06T05:34:43;20.40;;;18.60;;
1276;SDS011;631;51.024;13.826;2022-09-06T05:37:09;19.50;;;17.50;;
1276;SDS011;631;51.024;13.826;2022-09-06T05:39:34;19.40;;;17.70;;
1276;SDS011;631;51.024;13.826;2022-09-06T05:42:00;19.20;;;17.33;;
1276;SDS011;631;51.024;13.826;2022-09-06T05:44:30;18.43;;;16.63;;
1276;SDS011;631;51.024;13.826;2022-09-06T05:46:59;19.40;;;17.70;;
1276;SDS011;631;51.024;13.826;2022-09-06T05:49:27;17.13;;;15.40;;
1276;SDS011;631;51.024;13.826;2022-09-06T05:51:53;16.30;;;13.93;;
1276;SDS011;631;51.024;13.826;2022-09-06T05:54:18;14.33;;;13.13;;
1276;SDS011;631;51.024;13.826;2022-09-06T05:56:44;14.53;;;13.33;;
1276;SDS011;631;51.024;13.826;2022-09-06T05:59:10;13.20;;;12.03;;
1276;SDS011;631;51.024;13.826;2022-09-06T06:01:35;13.27;;;12.07;;
1276;SDS011;631;51.024;13.826;2022-09-06T06:04:02;14.70;;;12.90;;
1276;SDS011;631;51.024;13.826;2022-09-06T06:06:30;12.93;;;11.83;;
1276;SDS011;631;51.024;13.826;2022-09-06T06:08:57;12.20;;;11.17;;
1276;SDS011;631;51.024;13.826;2022-09-06T06:11:24;12.77;;;11.73;;
1276;SDS011;631;51.024;13.826;2022-09-06T06:13:50;13.07;;;11.87;;
1276;SDS011;631;51.024;13.826;2022-09-06T06:16:17;12.00;;;11.00;;
1276;SDS011;631;51.024;13.826;2022-09-06T06:18:44;13.20;;;12.10;;
1276;SDS011;631;51.024;13.826;2022-09-06T06:21:14;12.47;;;11.47;;
1276;SDS011;631;51.024;13.826;2022-09-06T06:23:44;13.57;;;12.47;;
1276;SDS011;631;51.024;13.826;2022-09-06T06:26:13;12.90;;;11.70;;
1276;SDS011;631;51.024;13.826;2022-09-06T06:28:38;12.93;;;11.90;;
1276;SDS011;631;51.024;13.826;2022-09-06T06:31:05;13.37;;;12.27;;
1276;SDS011;631;51.024;13.826;2022-09-06T06:33:32;13.57;;;12.40;;
1276;SDS011;631;51.024;13.826;2022-09-06T06:36:01;12.80;;;11.80;;
1276;SDS011;631;51.024;13.826;2022-09-06T06:38:28;13.23;;;12.13;;
1276;SDS011;631;51.024;13.826;2022-09-06T06:40:58;12.60;;;11.70;;
1276;SDS011;631;51.024;13.826;2022-09-06T06:43:24;12.53;;;11.63;;
1276;SDS011;631;51.024;13.826;2022-09-06T06:45:50;12.90;;;11.90;;
1276;SDS011;631;51.024;13.826;2022-09-06T06:48:16;12.67;;;11.57;;
1276;SDS011;631;51.024;13.826;2022-09-06T06:50:42;13.00;;;11.90;;
1276;SDS011;631;51.024;13.826;2022-09-06T06:53:07;12.17;;;11.27;;
1276;SDS011;631;51.024;13.826;2022-09-06T06:55:33;12.17;;;11.27;;
1276;SDS011;631;51.024;13.826;2022-09-06T06:57:59;13.30;;;12.27;;
1276;SDS011;631;51.024;13.826;2022-09-06T07:00:25;12.43;;;11.43;;
1276;SDS011;631;51.024;13.826;2022-09-06T07:02:51;12.00;;;11.00;;
1276;SDS011;631;51.024;13.826;2022-09-06T07:05:17;12.80;;;11.80;;
1276;SDS011;631;51.024;13.826;2022-09-06T07:07:43;13.00;;;12.00;;
1276;SDS011;631;51.024;13.826;2022-09-06T07:10:09;13.13;;;12.13;;
1276;SDS011;631;51.024;13.826;2022-09-06T07:12:35;12.00;;;11.20;;
1276;SDS011;631;51.024;13.826;2022-09-06T07:15:00;12.17;;;11.27;;
1276;SDS011;631;51.024;13.826;2022-09-06T07:17:27;12.43;;;11.53;;
1276;SDS011;631;51.024;13.826;2022-09-06T07:19:52;12.53;;;11.63;;
1276;SDS011;631;51.024;13.826;2022-09-06T07:22:19;12.70;;;11.70;;
1276;SDS011;631;51.024;13.826;2022-09-06T07:24:45;12.93;;;11.93;;
1276;SDS011;631;51.024;13.826;2022-09-06T07:27:10;12.83;;;11.73;;
1276;SDS011;631;51.024;13.826;2022-09-06T07:29:36;12.37;;;11.47;;
1276;SDS011;631;51.024;13.826;2022-09-06T07:32:01;12.60;;;11.60;;
1276;SDS011;631;51.024;13.826;2022-09-06T07:34:27;13.30;;;12.20;;
1276;SDS011;631;51.024;13.826;2022-09-06T07:36:53;13.30;;;12.30;;
1276;SDS011;631;51.024;13.826;2022-09-06T07:39:20;12.33;;;11.33;;
1276;SDS011;631;51.024;13.826;2022-09-06T07:41:46;12.63;;;11.73;;
1276;SDS011;631;51.024;13.826;2022-09-06T07:44:11;13.03;;;12.00;;
1276;SDS011;631;51.024;13.826;2022-09-06T07:46:37;12.70;;;11.80;;
1276;SDS011;631;51.024;13.826;2022-09-06T07:49:03;12.00;;;11.10;;
1276;SDS011;631;51.024;13.826;2022-09-06T07:51:29;12.20;;;11.40;;
1276;SDS011;631;51.024;13.826;2022-09-06T07:53:54;12.70;;;11.80;;
1276;SDS011;631;51.024;13.826;2022-09-06T07:56:20;11.87;;;11.07;;
1276;SDS011;631;51.024;13.826;2022-09-06T07:58:46;13.37;;;12.40;;
1276;SDS011;631;51.024;13.826;2022-09-06T08:03:58;12.47;;;11.37;;
1276;SDS011;631;51.024;13.826;2022-09-06T08:06:26;12.17;;;11.17;;
1276;SDS011;631;51.024;13.826;2022-09-06T08:08:53;12.83;;;11.93;;
1276;SDS011;631;51.024;13.826;2022-09-06T08:11:19;12.90;;;11.90;;
1276;SDS011;631;51.024;13.826;2022-09-06T08:13:50;13.80;;;12.50;;
1276;SDS011;631;51.024;13.826;2022-09-06T08:16:18;13.90;;;12.63;;
1276;SDS011;631;51.024;13.826;2022-09-06T08:18:48;14.30;;;13.20;;
1276;SDS011;631;51.024;13.826;2022-09-06T08:21:17;15.63;;;14.23;;
1276;SDS011;631;51.024;13.826;2022-09-06T08:23:44;13.07;;;11.97;;
1276;SDS011;631;51.024;13.826;2022-09-06T08:26:21;13.77;;;12.67;;
1276;SDS011;631;51.024;13.826;2022-09-06T08:28:51;12.50;;;11.40;;
1276;SDS011;631;51.024;13.826;2022-09-06T08:31:24;12.67;;;11.67;;
1276;SDS011;631;51.024;13.826;2022-09-06T08:33:51;12.43;;;11.53;;
1276;SDS011;631;51.024;13.826;2022-09-06T08:36:18;13.00;;;12.00;;
1276;SDS011;631;51.024;13.826;2022-09-06T08:38:43;12.33;;;11.27;;
1276;SDS011;631;51.024;13.826;2022-09-06T08:46:39;12.57;;;11.40;;
1276;SDS011;631;51.024;13.826;2022-09-06T08:49:12;12.33;;;11.40;;
1276;SDS011;631;51.024;13.826;2022-09-06T08:54:32;13.00;;;12.20;;
1276;SDS011;631;51.024;13.826;2022-09-06T08:57:14;11.30;;;10.50;;
1276;SDS011;631;51.024;13.826;2022-09-06T08:59:50;12.93;;;11.70;;
1276;SDS011;631;51.024;13.826;2022-09-06T09:02:21;12.33;;;11.33;;
1276;SDS011;631;51.024;13.826;2022-09-06T09:04:49;12.60;;;11.80;;
1276;SDS011;631;51.024;13.826;2022-09-06T09:10:14;11.10;;;10.17;;
1276;SDS011;631;51.024;13.826;2022-09-06T09:12:46;12.27;;;11.27;;
1276;SDS011;631;51.024;13.826;2022-09-06T09:15:14;12.13;;;11.33;;
1276;SDS011;631;51.024;13.826;2022-09-06T09:17:41;12.90;;;11.73;;
1276;SDS011;631;51.024;13.826;2022-09-06T09:20:08;12.10;;;11.40;;
1276;SDS011;631;51.024;13.826;2022-09-06T09:22:34;12.63;;;11.83;;
1276;SDS011;631;51.024;13.826;2022-09-06T09:25:00;11.83;;;11.13;;
1276;SDS011;631;51.024;13.826;2022-09-06T09:27:27;11.53;;;10.77;;
1276;SDS011;631;51.024;13.826;2022-09-06T09:32:35;11.20;;;10.30;;
1276;SDS011;631;51.024;13.826;2022-09-06T09:35:16;12.67;;;11.73;;
1276;SDS011;631;51.024;13.826;2022-09-06T09:37:42;11.83;;;11.13;;
1276;SDS011;631;51.024;13.826;2022-09-06T09:40:28;12.40;;;11.50;;
1276;SDS011;631;51.024;13.826;2022-09-06T09:43:30;13.30;;;12.40;;
1276;SDS011;631;51.024;13.826;2022-09-06T09:49:00;12.60;;;11.70;;
1276;SDS011;631;51.024;13.826;2022-09-06T09:51:37;12.40;;;11.60;;
1276;SDS011;631;51.024;13.826;2022-09-06T09:54:07;13.07;;;12.17;;
1276;SDS011;631;51.024;13.826;2022-09-06T09:56:48;12.90;;;11.90;;
1276;SDS011;631;51.024;13.826;2022-09-06T09:59:22;11.77;;;10.87;;
1276;SDS011;631;51.024;13.826;2022-09-06T10:01:49;12.10;;;11.20;;
1276;SDS011;631;51.024;13.826;2022-09-06T10:04:29;12.03;;;11.23;;
1276;SDS011;631;51.024;13.826;2022-09-06T10:07:19;11.13;;;10.33;;
1276;SDS011;631;51.024;13.826;2022-09-06T10:09:56;12.10;;;11.20;;
1276;SDS011;631;51.024;13.826;2022-09-06T10:14:54;12.80;;;11.67;;
1276;SDS011;631;51.024;13.826;2022-09-06T10:19:58;11.43;;;10.53;;
1276;SDS011;631;51.024;13.826;2022-09-06T10:22:27;11.57;;;10.77;;
1276;SDS011;631;51.024;13.826;2022-09-06T10:27:29;13.57;;;12.27;;
1276;SDS011;631;51.024;13.826;2022-09-06T10:29:59;12.13;;;11.23;;
1276;SDS011;631;51.024;13.826;2022-09-06T10:32:32;12.57;;;11.77;;
1276;SDS011;631;51.024;13.826;2022-09-06T10:37:48;11.23;;;10.53;;
1276;SDS011;631;51.024;13.826;2022-09-06T10:40:36;11.53;;;10.83;;
1276;SDS011;631;51.024;13.826;2022-09-06T10:43:17;12.40;;;11.50;;
1276;SDS011;631;51.024;13.826;2022-09-06T10:45:45;13.57;;;12.53;;
1276;SDS011;631;51.024;13.826;2022-09-06T10:48:30;12.37;;;11.57;;
1276;SDS011;631;51.024;13.826;2022-09-06T10:53:55;12.17;;;11.47;;
1276;SDS011;631;51.024;13.826;2022-09-06T10:56:28;12.63;;;11.70;;
1276;SDS011;631;51.024;13.826;2022-09-06T10:59:10;12.87;;;12.07;;
1276;SDS011;631;51.024;13.826;2022-09-06T11:04:36;11.77;;;10.97;;
1276;SDS011;631;51.024;13.826;2022-09-06T11:07:09;12.10;;;11.30;;
1276;SDS011;631;51.024;13.826;2022-09-06T11:09:52;11.67;;;10.87;;
1276;SDS011;631;51.024;13.826;2022-09-06T11:15:10;11.73;;;11.00;;
1276;SDS011;631;51.024;13.826;2022-09-06T11:17:40;12.10;;;11.30;;
1276;SDS011;631;51.024;13.826;2022-09-06T11:20:13;13.00;;;12.20;;
1276;SDS011;631;51.024;13.826;2022-09-06T11:28:14;12.90;;;12.20;;
1276;SDS011;631;51.024;13.826;2022-09-06T11:30:54;13.17;;;12.47;;
1276;SDS011;631;51.024;13.826;2022-09-06T11:33:31;13.13;;;12.33;;
1276;SDS011;631;51.024;13.826;2022-09-06T11:38:58;13.03;;;12.23;;
1276;SDS011;631;51.024;13.826;2022-09-06T11:41:29;13.07;;;12.40;;
1276;SDS011;631;51.024;13.826;2022-09-06T11:43:57;13.40;;;12.50;;
1276;SDS011;631;51.024;13.826;2022-09-06T11:49:05;11.30;;;10.70;;
1276;SDS011;631;51.024;13.826;2022-09-06T11:57:01;11.27;;;10.67;;
1276;SDS011;631;51.024;13.826;2022-09-06T12:07:24;11.73;;;11.03;;
1276;SDS011;631;51.024;13.826;2022-09-06T12:09:53;11.60;;;10.97;;
1276;SDS011;631;51.024;13.826;2022-09-06T12:17:53;11.73;;;11.13;;
1276;SDS011;631;51.024;13.826;2022-09-06T12:21:02;12.60;;;11.90;;
1276;SDS011;631;51.024;13.826;2022-09-06T12:23:39;12.20;;;11.40;;
1276;SDS011;631;51.024;13.826;2022-09-06T12:26:06;11.97;;;11.37;;
1276;SDS011;631;51.024;13.826;2022-09-06T12:33:53;12.63;;;11.93;;
1276;SDS011;631;51.024;13.826;2022-09-06T12:36:25;11.90;;;11.20;;
1276;SDS011;631;51.024;13.826;2022-09-06T12:38:55;12.07;;;11.27;;
1276;SDS011;631;51.024;13.826;2022-09-06T12:41:27;12.33;;;11.63;;
1276;SDS011;631;51.024;13.826;2022-09-06T12:43:54;12.80;;;12.00;;
1276;SDS011;631;51.024;13.826;2022-09-06T12:46:23;12.57;;;11.77;;
1276;SDS011;631;51.024;13.826;2022-09-06T12:49:00;11.23;;;10.63;;
1276;SDS011;631;51.024;13.826;2022-09-06T12:51:34;11.90;;;11.20;;
1276;SDS011;631;51.024;13.826;2022-09-06T12:54:20;12.93;;;12.10;;
1276;SDS011;631;51.024;13.826;2022-09-06T12:56:50;13.23;;;12.27;;
1276;SDS011;631;51.024;13.826;2022-09-06T12:59:20;12.37;;;11.70;;
1276;SDS011;631;51.024;13.826;2022-09-06T13:04:28;13.23;;;12.40;;
1276;SDS011;631;51.024;13.826;2022-09-06T13:06:56;13.10;;;12.23;;
1276;SDS011;631;51.024;13.826;2022-09-06T13:09:23;13.23;;;12.43;;
1276;SDS011;631;51.024;13.826;2022-09-06T13:11:51;13.13;;;12.30;;
1276;SDS011;631;51.024;13.826;2022-09-06T13:14:25;13.90;;;12.90;;
1276;SDS011;631;51.024;13.826;2022-09-06T13:16:53;12.97;;;12.17;;
1276;SDS011;631;51.024;13.826;2022-09-06T13:21:53;13.10;;;12.30;;
1276;SDS011;631;51.024;13.826;2022-09-06T13:24:25;12.70;;;11.80;;
1276;SDS011;631;51.024;13.826;2022-09-06T13:30:07;12.10;;;11.30;;
1276;SDS011;631;51.024;13.826;2022-09-06T13:32:34;12.87;;;12.07;;
1276;SDS011;631;51.024;13.826;2022-09-06T13:35:00;13.10;;;12.00;;
1276;SDS011;631;51.024;13.826;2022-09-06T13:37:31;11.97;;;10.90;;
1276;SDS011;631;51.024;13.826;2022-09-06T13:40:34;12.87;;;11.83;;
1276;SDS011;631;51.024;13.826;2022-09-06T13:43:05;13.23;;;12.33;;
1276;SDS011;631;51.024;13.826;2022-09-06T13:45:35;13.33;;;12.33;;
1276;SDS011;631;51.024;13.826;2022-09-06T13:48:02;12.37;;;11.27;;
1276;SDS011;631;51.024;13.826;2022-09-06T13:50:27;10.57;;;9.67;;
1276;SDS011;631;51.024;13.826;2022-09-06T13:52:53;9.68;;;8.77;;
1276;SDS011;631;51.024;13.826;2022-09-06T13:55:19;9.20;;;8.40;;
1276;SDS011;631;51.024;13.826;2022-09-06T13:57:47;11.13;;;9.97;;
1276;SDS011;631;51.024;13.826;2022-09-06T14:00:13;11.27;;;10.37;;
1276;SDS011;631;51.024;13.826;2022-09-06T14:02:39;12.87;;;11.87;;
1276;SDS011;631;51.024;13.826;2022-09-06T14:05:06;12.30;;;11.50;;
1276;SDS011;631;51.024;13.826;2022-09-06T14:07:32;11.67;;;10.73;;
1276;SDS011;631;51.024;13.826;2022-09-06T14:09:57;11.47;;;10.50;;
1276;SDS011;631;51.024;13.826;2022-09-06T14:12:24;12.37;;;11.23;;
1276;SDS011;631;51.024;13.826;2022-09-06T14:14:51;13.27;;;12.17;;
1276;SDS011;631;51.024;13.826;2022-09-06T14:17:16;13.57;;;12.47;;
1276;SDS011;631;51.024;13.826;2022-09-06T14:19:42;13.40;;;12.27;;
1276;SDS011;631;51.024;13.826;2022-09-06T14:22:08;14.30;;;13.10;;
1276;SDS011;631;51.024;13.826;2022-09-06T14:24:34;14.57;;;13.47;;
1276;SDS011;631;51.024;13.826;2022-09-06T14:26:59;16.03;;;14.57;;
1276;SDS011;631;51.024;13.826;2022-09-06T14:29:25;15.70;;;14.30;;
1276;SDS011;631;51.024;13.826;2022-09-06T14:31:52;17.87;;;16.20;;
1276;SDS011;631;51.024;13.826;2022-09-06T14:34:17;16.37;;;14.97;;
1276;SDS011;631;51.024;13.826;2022-09-06T14:36:43;18.00;;;16.30;;
1276;SDS011;631;51.024;13.826;2022-09-06T14:39:09;17.80;;;16.10;;
1276;SDS011;631;51.024;13.826;2022-09-06T14:41:34;18.03;;;16.53;;
1276;SDS011;631;51.024;13.826;2022-09-06T14:44:00;17.73;;;16.20;;
1276;SDS011;631;51.024;13.826;2022-09-06T14:46:26;18.10;;;16.60;;
1276;SDS011;631;51.024;13.826;2022-09-06T14:49:05;18.40;;;16.80;;
1276;SDS011;631;51.024;13.826;2022-09-06T14:51:32;17.93;;;16.30;;
1276;SDS011;631;51.024;13.826;2022-09-06T14:54:01;19.33;;;17.53;;
1276;SDS011;631;51.024;13.826;2022-09-06T14:56:28;19.10;;;17.27;;
1276;SDS011;631;51.024;13.826;2022-09-06T14:58:54;19.40;;;17.57;;
1276;SDS011;631;51.024;13.826;2022-09-06T15:01:22;18.37;;;16.67;;
1276;SDS011;631;51.024;13.826;2022-09-06T15:03:50;16.67;;;15.17;;
1276;SDS011;631;51.024;13.826;2022-09-06T15:06:19;16.80;;;15.20;;
1276;SDS011;631;51.024;13.826;2022-09-06T15:08:46;16.83;;;15.33;;
1276;SDS011;631;51.024;13.826;2022-09-06T15:11:13;17.80;;;16.20;;
1276;SDS011;631;51.024;13.826;2022-09-06T15:13:51;18.10;;;16.50;;
1276;SDS011;631;51.024;13.826;2022-09-06T15:16:16;19.50;;;17.80;;
1276;SDS011;631;51.024;13.826;2022-09-06T15:18:42;18.37;;;16.77;;
1276;SDS011;631;51.024;13.826;2022-09-06T15:21:11;18.87;;;17.17;;
1276;SDS011;631;51.024;13.826;2022-09-06T15:23:38;18.80;;;17.10;;
1276;SDS011;631;51.024;13.826;2022-09-06T15:26:08;18.87;;;17.27;;
1276;SDS011;631;51.024;13.826;2022-09-06T15:28:38;19.67;;;17.97;;
1276;SDS011;631;51.024;13.826;2022-09-06T15:31:05;20.17;;;18.37;;
1276;SDS011;631;51.024;13.826;2022-09-06T15:33:32;22.23;;;20.13;;
1276;SDS011;631;51.024;13.826;2022-09-06T15:36:00;21.20;;;19.30;;
1276;SDS011;631;51.024;13.826;2022-09-06T15:38:30;20.43;;;18.63;;
1276;SDS011;631;51.024;13.826;2022-09-06T15:41:06;22.17;;;20.17;;
1276;SDS011;631;51.024;13.826;2022-09-06T15:43:32;19.17;;;17.57;;
1276;SDS011;631;51.024;13.826;2022-09-06T15:45:58;20.87;;;19.17;;
1276;SDS011;631;51.024;13.826;2022-09-06T15:48:24;20.77;;;19.07;;
1276;SDS011;631;51.024;13.826;2022-09-06T15:50:50;21.47;;;19.50;;
1276;SDS011;631;51.024;13.826;2022-09-06T15:53:16;23.10;;;21.00;;
1276;SDS011;631;51.024;13.826;2022-09-06T15:55:42;23.10;;;21.00;;
1276;SDS011;631;51.024;13.826;2022-09-06T15:58:20;22.70;;;20.77;;
1276;SDS011;631;51.024;13.826;2022-09-06T16:00:57;23.23;;;21.03;;
1276;SDS011;631;51.024;13.826;2022-09-06T16:03:26;23.70;;;21.40;;
1276;SDS011;631;51.024;13.826;2022-09-06T16:05:51;23.83;;;21.83;;
1276;SDS011;631;51.024;13.826;2022-09-06T16:08:17;25.33;;;23.13;;
1276;SDS011;631;51.024;13.826;2022-09-06T16:10:43;24.63;;;22.33;;
1276;SDS011;631;51.024;13.826;2022-09-06T16:13:09;25.83;;;23.70;;
1276;SDS011;631;51.024;13.826;2022-09-06T16:15:35;24.87;;;22.70;;
1276;SDS011;631;51.024;13.826;2022-09-06T16:18:01;24.77;;;22.77;;
1276;SDS011;631;51.024;13.826;2022-09-06T16:20:29;25.90;;;23.70;;
1276;SDS011;631;51.024;13.826;2022-09-06T16:22:55;25.70;;;23.40;;
1276;SDS011;631;51.024;13.826;2022-09-06T16:25:22;27.17;;;24.87;;
1276;SDS011;631;51.024;13.826;2022-09-06T16:27:47;26.77;;;24.40;;
1276;SDS011;631;51.024;13.826;2022-09-06T16:30:13;25.33;;;23.17;;
1276;SDS011;631;51.024;13.826;2022-09-06T16:32:38;25.93;;;23.47;;
1276;SDS011;631;51.024;13.826;2022-09-06T16:35:04;28.03;;;25.70;;
1276;SDS011;631;51.024;13.826;2022-09-06T16:37:30;25.80;;;23.60;;
1276;SDS011;631;51.024;13.826;2022-09-06T16:39:56;26.40;;;24.00;;
1276;SDS011;631;51.024;13.826;2022-09-06T16:42:22;26.67;;;24.47;;
1276;SDS011;631;51.024;13.826;2022-09-06T16:44:48;27.90;;;25.13;;
1276;SDS011;631;51.024;13.826;2022-09-06T16:47:13;27.20;;;24.77;;
1276;SDS011;631;51.024;13.826;2022-09-06T16:49:39;27.60;;;25.20;;
1276;SDS011;631;51.024;13.826;2022-09-06T16:52:05;28.17;;;25.63;;
1276;SDS011;631;51.024;13.826;2022-09-06T16:54:30;27.40;;;25.07;;
1276;SDS011;631;51.024;13.826;2022-09-06T16:56:56;29.07;;;26.37;;